Seneca Rocks, WV (26884)

6:33 AM EDT on July 23, 2016 (GMT -0400)
Cherry Ridge | | Change Station

Elev 2694 ft 38.97 °N, 79.46 °W | Updated 14 seconds ago

Mist
Mist
62.8 °F
Feels Like 62.8 °F
N
0.0
Wind Variable Wind from SW
Gusts 0.0 mph

Today
High -- | Low -- °F
--% Chance of Precip.
Yesterday
High -- | Low -- °F
Precip. -- in
Pressure 30.02 in
Visibility 1.8 miles
Clouds
Dew Point 62 °F
Humidity 97%
Rainfall 0.00 in
Snow Depth Not available.
6:11 AM 8:36 PM
Waning Gibbous, 86% visible
METAR KW99 231015Z AUTO 00000KT 1 3/4SM BR VV007 18/18 A3002 RMK AO2 T01820180
Pressure 30.02 in
Visibility 1.8 miles
Clouds
Dew Point 62 °F
Humidity 97%
Rainfall 0.00 in
Snow Depth Not available.
6:11 AM 8:36 PM
Waning Gibbous, 86% visible
METAR KW99 231015Z AUTO 00000KT 1 3/4SM BR VV007 18/18 A3002 RMK AO2 T01820180

10-Day Weather Forecast

Almanac

Astronomy

Jul. 23, 2016 Rise Set
Actual Time
Civil Twilight
Nautical Twilight
Astronomical Twilight
Moon
Length of Visible Light
Length of Day
Tomorrow will be .
, % of the Moon is Illuminated

Today's Extremes

State Highs State Lows

Community

WunderPhotos

Upload Photos

1,926,791 photos uploaded!

WunderBlog® & News

Nearby

Air Quality

  Air Quality AQ Index Pollutant
Not available.

Snow Depth

Station Depth Elevation

Earthquake Activity

City Distance Mag. Time & Date
Minimum magnitude displayed is 2.5.

Coastal Water Temperatures

Place Temperature

Stations

Nearby Weather Stations

Station Location Temp. Windchill Dew Point Humidity Wind Precip. Elev Updated Type
                   

Watches & Warnings

There are currently no watches in effect.